createdAt,value
2023-03-25T20:29:17.407Z,84.20
2023-03-25T20:31:44.450Z,85.30
2023-03-25T20:34:11.372Z,85.50
2023-03-25T20:36:38.248Z,85.40
2023-03-25T20:39:05.130Z,85.00
2023-03-25T20:41:32.027Z,84.40
2023-03-25T20:43:58.919Z,84.10
2023-03-25T20:46:27.189Z,83.60
2023-03-25T20:48:54.331Z,83.10
2023-03-25T20:51:21.215Z,82.80
2023-03-25T20:53:48.145Z,82.60
2023-03-25T20:56:15.023Z,82.30
2023-03-25T20:58:41.931Z,81.90
2023-03-25T21:01:08.856Z,81.60
2023-03-25T21:03:37.136Z,81.30
2023-03-25T21:06:13.437Z,81.00
2023-03-25T21:08:49.502Z,80.70
2023-03-25T21:11:16.407Z,80.60
2023-03-25T21:13:43.390Z,80.30
2023-03-25T21:16:10.397Z,80.10
2023-03-25T21:18:38.701Z,80.00
2023-03-25T21:21:05.798Z,79.80
2023-03-25T21:23:32.751Z,79.60
2023-03-25T21:26:00.416Z,79.40
2023-03-25T21:28:27.443Z,79.20
2023-03-25T21:31:01.855Z,79.10
2023-03-25T21:33:29.124Z,78.60
2023-03-25T21:35:57.417Z,78.70
2023-03-25T21:38:28.638Z,78.60
2023-03-25T21:40:56.830Z,78.60
2023-03-25T21:43:24.029Z,78.40
2023-03-25T21:45:51.150Z,78.50
2023-03-25T21:48:18.299Z,78.40
2023-03-25T21:50:45.181Z,78.30
2023-03-25T21:53:13.702Z,78.10
2023-03-25T21:55:40.571Z,78.00
2023-03-25T21:58:07.572Z,77.90
2023-03-25T22:00:34.238Z,77.90
2023-03-25T22:03:01.122Z,77.70
2023-03-25T22:05:27.962Z,77.60
2023-03-25T22:07:54.938Z,77.60
2023-03-25T22:10:23.182Z,77.60
2023-03-25T22:12:50.070Z,77.50
2023-03-25T22:15:17.025Z,77.50
2023-03-25T22:17:43.958Z,77.50
2023-03-25T22:20:11.352Z,77.40
2023-03-25T22:22:38.304Z,77.30
2023-03-25T22:25:06.085Z,77.20
2023-03-25T22:27:34.419Z,77.20
2023-03-25T22:30:01.320Z,77.10
2023-03-25T22:32:28.422Z,77.10
2023-03-25T22:34:55.312Z,77.10
2023-03-25T22:37:22.168Z,77.10
2023-03-25T22:39:49.127Z,77.20
2023-03-25T22:42:15.980Z,77.60
2023-03-25T22:44:44.372Z,77.60
2023-03-25T22:47:11.278Z,77.70
2023-03-25T22:49:38.153Z,77.80
2023-03-25T22:52:05.358Z,77.90
2023-03-25T22:54:32.273Z,77.80
2023-03-25T22:56:59.241Z,77.70
2023-03-25T22:59:26.188Z,78.40
2023-03-25T23:01:54.800Z,77.50
2023-03-25T23:04:21.778Z,77.40
2023-03-25T23:06:57.265Z,77.20
2023-03-25T23:09:32.032Z,77.20
2023-03-25T23:11:58.930Z,77.20
2023-03-25T23:14:25.834Z,77.00
2023-03-25T23:16:54.119Z,76.90
2023-03-25T23:19:21.225Z,76.80
2023-03-25T23:21:48.118Z,76.80
2023-03-25T23:24:14.987Z,76.80
2023-03-25T23:26:41.944Z,77.50
2023-03-25T23:29:10.449Z,76.80
2023-03-25T23:31:37.882Z,76.70
2023-03-25T23:34:07.465Z,76.60
2023-03-25T23:36:35.258Z,76.60
2023-03-25T23:39:02.549Z,76.60
2023-03-25T23:41:29.619Z,76.60
2023-03-25T23:43:56.664Z,76.60
2023-03-25T23:46:23.899Z,77.40
2023-03-25T23:48:50.922Z,76.60
2023-03-25T23:51:19.361Z,76.60
2023-03-25T23:53:46.985Z,76.50
2023-03-25T23:56:14.077Z,76.50
2023-03-25T23:58:41.079Z,76.50
